Time;durP1;ratioP1;P1;durP2;ratioP2;P2;SDS_P1;SDS_P2;PMS_P1;PMS_P2;Temp;Humidity;BMP_temperature;BMP_pressure;BME280_temperature;BME280_humidity;BME280_pressure;Samples;Min_cycle;Max_cycle;Signal;HPM_P1;HPM_P2
2021/11/08 00:01:06;;;;;;;23.42;19.30;;;;;;;8.32;82.22;99993.07;1758844;80;20985;-69
2021/11/08 00:03:36;;;;;;;25.72;20.37;;;;;;;8.33;82.28;99993.42;1757306;80;21065;-70
2021/11/08 00:06:04;;;;;;;26.10;19.35;;;;;;;8.34;82.33;99992.47;1753318;80;20961;-70
2021/11/08 00:08:32;;;;;;;23.47;19.17;;;;;;;8.36;82.35;99986.64;1762128;80;21174;-70
2021/11/08 00:10:59;;;;;;;24.65;17.62;;;;;;;8.38;82.37;99980.77;1763554;80;21360;-70
2021/11/08 00:13:26;;;;;;;22.13;18.45;;;;;;;8.39;82.38;99986.39;1753401;81;20981;-70
2021/11/08 00:16:09;;;;;;;24.60;18.50;;;;;;;8.41;82.39;99979.72;1763361;80;21005;-70
2021/11/08 00:20:56;;;;;;;24.45;18.95;;;;;;;8.42;82.41;99980.92;1754758;81;21038;-68
2021/11/08 00:23:23;;;;;;;22.98;18.45;;;;;;;8.43;82.45;99984.39;1751760;82;20961;-70
2021/11/08 00:25:51;;;;;;;23.92;18.42;;;;;;;8.43;82.48;99969.91;1752170;81;21373;-69
2021/11/08 00:28:19;;;;;;;22.85;18.20;;;;;;;8.43;82.50;99968.59;1755954;81;22610;-70
2021/11/08 00:30:48;;;;;;;23.90;17.77;;;;;;;8.44;82.53;99962.37;1752513;81;21122;-70
2021/11/08 00:33:16;;;;;;;21.20;17.90;;;;;;;8.44;82.56;99959.73;1752922;81;21478;-70
2021/11/08 00:35:49;;;;;;;23.57;18.85;;;;;;;8.44;82.58;99959.27;1762147;81;21013;-70
2021/11/08 00:38:16;;;;;;;20.65;18.20;;;;;;;8.45;82.71;99970.63;1768061;81;21068;-69
2021/11/08 00:40:43;;;;;;;26.10;18.50;;;;;;;8.45;82.74;99963.56;1745298;80;22224;-70
2021/11/08 00:43:11;;;;;;;23.10;18.07;;;;;;;8.47;82.77;99966.91;1781844;79;20923;-69
2021/11/08 00:45:38;;;;;;;21.90;17.52;;;;;;;8.47;82.83;99970.02;1766472;80;21429;-69
2021/11/08 00:48:05;;;;;;;21.37;17.73;;;;;;;8.48;82.86;99975.64;1706841;83;21007;-69
2021/11/08 00:50:32;;;;;;;24.75;18.82;;;;;;;8.49;82.87;99973.37;1749602;81;21023;-69
2021/11/08 00:52:59;;;;;;;23.38;17.42;;;;;;;8.50;82.91;99981.66;1760163;80;21801;-70
2021/11/08 00:55:28;;;;;;;23.87;17.73;;;;;;;8.53;82.94;99973.51;1753172;80;21001;-69
2021/11/08 00:57:57;;;;;;;21.48;17.20;;;;;;;8.54;82.91;99973.87;1736084;81;21442;-69
2021/11/08 01:00:29;;;;;;;21.55;17.30;;;;;;;8.55;82.89;99976.86;1749769;80;22211;-69
2021/11/08 01:02:56;;;;;;;21.15;16.32;;;;;;;8.53;82.88;99966.45;1769375;80;21020;-70
2021/11/08 01:05:24;;;;;;;20.23;17.12;;;;;;;8.52;82.85;99975.30;1764456;80;22707;-70
2021/11/08 01:07:50;;;;;;;21.17;16.95;;;;;;;8.52;82.85;99977.94;1763459;80;20940;-70
2021/11/08 01:10:18;;;;;;;22.15;17.23;;;;;;;8.51;82.83;99978.06;1733039;81;21087;-70
2021/11/08 01:12:45;;;;;;;22.40;17.55;;;;;;;8.51;82.85;99977.58;1756243;81;21274;-70
2021/11/08 01:15:13;;;;;;;24.35;18.52;;;;;;;8.50;82.92;99982.97;1767511;80;21091;-70
2021/11/08 01:17:40;;;;;;;21.97;17.60;;;;;;;8.49;82.96;99976.00;1769323;80;22612;-70
2021/11/08 01:20:10;;;;;;;21.10;17.07;;;;;;;8.49;82.99;99979.50;1761726;80;20954;-71
2021/11/08 01:22:39;;;;;;;20.10;17.48;;;;;;;8.50;83.02;99973.27;1762661;80;21075;-70
2021/11/08 01:25:08;;;;;;;23.20;18.52;;;;;;;8.51;83.07;99978.90;1762386;80;21028;-71
2021/11/08 01:27:47;;;;;;;23.12;18.50;;;;;;;8.51;83.10;99977.58;1760563;80;21092;-70
2021/11/08 01:30:18;;;;;;;22.20;19.05;;;;;;;8.51;83.14;99972.31;1772203;79;21857;-69
2021/11/08 01:33:03;;;;;;;22.85;17.32;;;;;;;8.51;83.18;99967.53;1776120;80;21000;-69
2021/11/08 01:35:31;;;;;;;23.60;18.92;;;;;;;8.52;83.19;99963.46;1757122;80;21442;-71
2021/11/08 01:38:09;;;;;;;20.95;17.82;;;;;;;8.52;83.19;99974.47;1766884;80;21083;-69
2021/11/08 01:40:38;;;;;;;22.40;17.12;;;;;;;8.49;83.20;99968.97;1773939;80;21000;-71
2021/11/08 01:43:05;;;;;;;23.40;19.17;;;;;;;8.48;83.17;99962.00;1763862;79;21650;-70
2021/11/08 01:45:32;;;;;;;23.57;19.75;;;;;;;8.49;83.21;99965.47;1766101;80;21000;-69
2021/11/08 01:47:58;;;;;;;21.90;18.12;;;;;;;8.48;83.23;99963.80;1761052;80;21000;-69
2021/11/08 01:50:26;;;;;;;22.90;18.25;;;;;;;8.49;83.26;99960.20;1758114;81;21103;-69
2021/11/08 01:52:53;;;;;;;22.62;18.70;;;;;;;8.48;83.24;99944.89;1762186;80;20944;-69
2021/11/08 01:55:21;;;;;;;24.23;18.80;;;;;;;8.48;83.24;99942.74;1784051;80;21892;-70
2021/11/08 01:57:48;;;;;;;21.17;17.50;;;;;;;8.47;83.22;99934.49;1757284;79;20912;-70
2021/11/08 02:00:16;;;;;;;25.60;19.45;;;;;;;8.45;83.17;99937.25;1739369;81;21035;-70
2021/11/08 02:02:43;;;;;;;22.80;19.20;;;;;;;8.43;83.14;99926.48;1793748;79;20964;-69
2021/11/08 02:05:10;;;;;;;28.73;20.75;;;;;;;8.41;83.10;99928.41;1792055;79;21590;-69
2021/11/08 02:07:38;;;;;;;29.12;22.07;;;;;;;8.38;83.01;99924.20;1775609;79;21067;-69
2021/11/08 02:10:07;;;;;;;29.32;21.62;;;;;;;8.34;82.97;99913.53;1784453;80;20999;-70
2021/11/08 02:12:34;;;;;;;26.33;20.43;;;;;;;8.30;82.90;99921.31;1763496;80;21047;-70
2021/11/08 02:15:03;;;;;;;25.02;18.50;;;;;;;8.27;82.83;99930.73;1751284;81;21095;-70
2021/11/08 02:17:31;;;;;;;20.90;18.40;;;;;;;8.23;82.81;99929.31;1763129;80;20981;-69
2021/11/08 02:19:58;;;;;;;23.42;18.12;;;;;;;8.20;82.76;99922.95;1754679;80;22255;-69
2021/11/08 02:22:25;;;;;;;21.65;18.42;;;;;;;8.16;82.75;99922.84;1765436;80;21044;-69
2021/11/08 02:24:53;;;;;;;23.30;17.57;;;;;;;8.12;82.71;99911.72;1768538;80;21008;-69
2021/11/08 02:27:21;;;;;;;25.65;17.80;;;;;;;8.09;82.69;99909.78;1778669;80;20964;-70
2021/11/08 02:29:50;;;;;;;22.62;18.52;;;;;;;8.04;82.75;99915.41;1768616;80;21498;-70
2021/11/08 02:32:15;;;;;;;23.07;18.10;;;;;;;8.01;82.81;99915.17;1793299;79;22178;-69
2021/11/08 02:34:42;;;;;;;22.98;18.15;;;;;;;7.99;82.83;99908.33;1776754;80;21405;-69
2021/11/08 02:37:08;;;;;;;25.97;18.62;;;;;;;7.97;82.88;99912.40;1778674;80;21422;-69
2021/11/08 02:39:39;;;;;;;20.68;16.95;;;;;;;7.95;82.84;99915.63;1764029;80;21031;-69
2021/11/08 02:42:06;;;;;;;22.85;18.15;;;;;;;7.93;82.88;99920.17;1779096;80;21040;-69
2021/11/08 02:44:33;;;;;;;23.27;18.15;;;;;;;7.90;82.85;99917.75;1783571;80;21805;-70
2021/11/08 02:47:00;;;;;;;21.30;18.07;;;;;;;7.87;82.91;99919.78;1781298;80;20957;-70
2021/11/08 02:49:29;;;;;;;21.45;17.42;;;;;;;7.85;82.94;99925.64;1744503;80;21127;-69
2021/11/08 02:52:07;;;;;;;24.57;17.80;;;;;;;7.81;82.93;99924.17;1727367;81;21018;-70
2021/11/08 02:54:28;;;;;;;27.60;18.05;;;;;;;7.79;82.99;99926.92;1747829;81;21054;-70
2021/11/08 02:56:53;;;;;;;26.70;18.37;;;;;;;7.78;83.05;99934.94;1769139;79;21864;-70
2021/11/08 02:59:20;;;;;;;22.70;16.90;;;;;;;7.75;83.13;99934.22;1801102;79;21617;-69
2021/11/08 03:01:48;;;;;;;23.85;17.75;;;;;;;7.78;83.27;99937.56;1806492;79;20980;-69
2021/11/08 03:04:20;;;;;;;22.20;17.55;;;;;;;7.79;83.40;99931.35;1755439;80;21544;-69
2021/11/08 03:06:43;;;;;;;19.82;16.10;;;;;;;7.80;83.52;99933.02;1763127;80;20992;-70
2021/11/08 03:09:18;;;;;;;24.37;17.40;;;;;;;7.81;83.61;99936.84;1768894;80;22649;-69
2021/11/08 03:11:45;;;;;;;22.10;18.57;;;;;;;7.82;83.70;99929.35;1783363;79;20998;-70
2021/11/08 03:14:18;;;;;;;23.20;18.23;;;;;;;7.85;83.78;99931.73;1783600;80;20961;-69
2021/11/08 03:16:55;;;;;;;24.07;19.00;;;;;;;7.86;83.87;99932.09;1759728;80;21016;-70
2021/11/08 03:19:30;;;;;;;21.37;17.10;;;;;;;7.87;83.92;99929.83;1761705;81;20985;-70
2021/11/08 03:21:56;;;;;;;23.10;18.40;;;;;;;7.89;83.93;99935.80;1759148;81;22494;-70
2021/11/08 03:25:13;;;;;;;21.33;18.52;;;;;;;7.90;83.95;99934.01;1744527;81;21328;-70
2021/11/08 03:27:02;;;;;;;23.20;17.77;;;;;;;7.91;83.95;99929.98;1734182;81;21103;-69
2021/11/08 03:29:23;;;;;;;23.62;17.90;;;;;;;7.91;83.95;99928.66;1744238;81;20957;-69
2021/11/08 03:31:50;;;;;;;22.73;18.07;;;;;;;7.94;83.94;99932.84;1762769;81;20957;-69
2021/11/08 03:34:18;;;;;;;20.77;17.30;;;;;;;7.94;83.93;99937.63;1757606;80;21792;-69
2021/11/08 03:36:47;;;;;;;22.25;18.05;;;;;;;7.94;83.92;99938.94;1766310;80;21036;-69
2021/11/08 03:39:15;;;;;;;23.25;18.25;;;;;;;7.95;83.90;99937.98;1789030;80;21015;-70
2021/11/08 03:41:41;;;;;;;22.15;18.62;;;;;;;7.96;83.87;99936.19;1742369;81;20953;-70
2021/11/08 03:44:07;;;;;;;21.15;17.45;;;;;;;7.97;83.84;99933.91;1760077;81;21007;-70
2021/11/08 03:46:34;;;;;;;21.33;17.92;;;;;;;7.99;83.80;99942.05;1742572;81;21841;-69
2021/11/08 03:49:01;;;;;;;20.77;17.82;;;;;;;8.00;83.73;99942.39;1745714;81;21118;-69
2021/11/08 03:51:28;;;;;;;21.70;17.50;;;;;;;8.00;83.67;99942.88;1760712;80;21039;-70
2021/11/08 03:53:54;;;;;;;21.30;17.42;;;;;;;7.99;83.65;99945.98;1747585;80;21028;-70
2021/11/08 03:56:21;;;;;;;21.52;17.62;;;;;;;8.00;83.56;99938.94;1759570;80;21402;-70
2021/11/08 03:58:47;;;;;;;21.60;16.95;;;;;;;8.01;83.52;99935.38;1756242;80;22823;-69
2021/11/08 04:01:14;;;;;;;20.70;17.45;;;;;;;8.01;83.47;99936.21;1790118;80;20960;-70
2021/11/08 04:03:40;;;;;;;19.48;16.95;;;;;;;8.01;83.42;99935.38;1756476;81;20931;-70
2021/11/08 04:06:08;;;;;;;22.20;18.15;;;;;;;8.01;83.38;99928.80;1767999;81;21263;-70
2021/11/08 04:08:36;;;;;;;22.30;17.75;;;;;;;7.98;83.32;99925.91;1725955;81;21021;-69
2021/11/08 04:11:03;;;;;;;24.05;18.95;;;;;;;7.99;83.33;99918.38;1753691;81;21788;-69
2021/11/08 04:13:34;;;;;;;23.52;18.80;;;;;;;8.00;83.29;99916.58;1770665;81;20846;-70
2021/11/08 04:16:01;;;;;;;23.42;18.70;;;;;;;8.01;83.25;99926.17;1770248;81;20958;-70
2021/11/08 04:18:30;;;;;;;25.35;19.65;;;;;;;8.02;83.23;99931.31;1753388;81;21009;-70
2021/11/08 04:20:57;;;;;;;24.65;20.10;;;;;;;8.03;83.18;99929.52;1769865;80;20996;-70
2021/11/08 04:23:24;;;;;;;26.17;20.12;;;;;;;8.03;83.16;99930.83;1783894;80;22831;-69
2021/11/08 04:25:52;;;;;;;27.77;21.05;;;;;;;8.04;83.11;99924.13;1770113;80;20933;-70
2021/11/08 04:28:20;;;;;;;28.70;22.15;;;;;;;8.04;83.07;99925.92;1751324;80;20953;-70
2021/11/08 04:30:46;;;;;;;26.48;21.60;;;;;;;8.06;83.06;99920.55;1754076;80;21000;-70
2021/11/08 04:33:33;;;;;;;27.77;22.10;;;;;;;8.07;83.03;99924.37;1764821;79;20941;-70
2021/11/08 04:38:48;;;;;;;30.70;21.33;;;;;;;8.10;82.97;99920.19;1781135;80;20923;-70
2021/11/08 04:41:17;;;;;;;33.35;24.45;;;;;;;8.12;82.96;99927.50;1770711;80;21428;-70
2021/11/08 04:46:37;;;;;;;35.40;26.05;;;;;;;8.11;82.95;99932.89;1783970;80;20940;-70
2021/11/08 04:54:07;;;;;;;38.90;28.90;;;;;;;8.07;82.74;99915.64;1783843;80;20945;-70
2021/11/08 05:31:49;;;;;;;50.55;32.93;;;;;;;7.95;82.42;99959.49;1772650;79;20935;-68
2021/11/08 05:34:15;;;;;;;35.43;26.80;;;;;;;7.94;82.38;99964.39;1782135;79;21000;-68
2021/11/08 05:36:42;;;;;;;36.77;27.37;;;;;;;7.92;82.35;99960.57;1767770;80;20969;-68
2021/11/08 05:39:09;;;;;;;37.10;26.05;;;;;;;7.91;82.33;99961.53;1789424;79;21024;-68
2021/11/08 05:41:40;;;;;;;33.75;26.00;;;;;;;7.92;82.31;99968.94;1781291;79;20992;-71
2021/11/08 05:44:06;;;;;;;35.80;28.27;;;;;;;7.93;82.28;99973.24;1791413;79;20996;-70
2021/11/08 05:46:33;;;;;;;33.18;26.40;;;;;;;7.92;82.21;99979.45;1767838;80;20992;-69
2021/11/08 05:49:00;;;;;;;35.52;25.12;;;;;;;7.91;82.14;99980.38;1787230;79;21101;-69
2021/11/08 05:51:27;;;;;;;32.38;24.98;;;;;;;7.91;82.09;99980.38;1767371;79;20980;-69
2021/11/08 05:53:54;;;;;;;32.60;25.50;;;;;;;7.90;82.08;99977.39;1781901;78;22849;-68
2021/11/08 05:56:36;;;;;;;29.30;25.15;;;;;;;7.91;82.09;99980.38;1767888;80;21052;-70
2021/11/08 05:59:15;;;;;;;30.00;23.70;;;;;;;7.92;82.07;99990.81;1785124;79;21434;-68
2021/11/08 06:50:57;;;;;;;27.67;18.90;;;;;;;8.27;79.51;100014.45;1753194;81;20830;-68
2021/11/08 06:53:19;;;;;;;30.30;21.40;;;;;;;8.27;79.39;100016.25;1757765;79;21549;-68
2021/11/08 06:55:50;;;;;;;25.12;19.02;;;;;;;8.27;79.24;100019.72;1749419;80;21002;-68
2021/11/08 06:58:18;;;;;;;25.27;20.45;;;;;;;8.28;79.08;100017.92;1751677;80;20932;-68
2021/11/08 07:00:46;;;;;;;27.80;21.05;;;;;;;8.26;78.89;100007.52;1770394;80;21862;-68
2021/11/08 07:03:13;;;;;;;28.32;20.82;;;;;;;8.24;78.57;100019.13;1753087;81;20953;-68
2021/11/08 07:05:39;;;;;;;27.42;20.35;;;;;;;8.24;78.45;100023.06;1758209;80;21359;-68
2021/11/08 07:08:07;;;;;;;25.02;19.27;;;;;;;8.24;78.36;100025.22;1751310;80;21001;-69
2021/11/08 07:10:34;;;;;;;25.17;19.98;;;;;;;8.28;78.33;100025.81;1747608;82;20954;-69
2021/11/08 07:13:00;;;;;;;26.77;20.15;;;;;;;8.34;78.23;100033.26;1762816;80;22161;-69
2021/11/08 07:15:28;;;;;;;23.85;18.48;;;;;;;8.43;78.23;100031.28;1773243;79;21016;-69
2021/11/08 07:17:55;;;;;;;24.00;18.75;;;;;;;8.53;78.07;100038.84;1752809;80;21467;-68
2021/11/08 07:20:23;;;;;;;21.97;17.70;;;;;;;8.55;77.53;100035.60;1732972;81;20976;-68
2021/11/08 07:22:49;;;;;;;24.98;18.35;;;;;;;8.61;77.38;100029.05;1729486;80;21061;-68
2021/11/08 07:25:16;;;;;;;23.05;16.75;;;;;;;8.66;77.13;100023.41;1731706;81;22675;-69
2021/11/08 07:27:43;;;;;;;21.37;16.30;;;;;;;8.69;76.46;100019.25;1737130;81;20969;-72
2021/11/08 07:30:10;;;;;;;26.62;17.23;;;;;;;8.75;76.27;100028.80;1728093;80;21035;-69
2021/11/08 07:32:37;;;;;;;23.42;18.67;;;;;;;8.82;76.15;100021.28;1731396;81;20990;-70
2021/11/08 07:35:04;;;;;;;23.77;16.77;;;;;;;8.88;75.60;100025.59;1734311;80;21006;-69
2021/11/08 07:37:31;;;;;;;21.20;16.67;;;;;;;8.92;74.94;100026.67;1752180;81;22186;-70
2021/11/08 07:39:57;;;;;;;21.60;15.05;;;;;;;8.97;74.59;100024.02;1745239;81;21021;-71
2021/11/08 07:42:24;;;;;;;17.82;14.63;;;;;;;9.08;74.41;100027.16;1723654;83;21382;-68
2021/11/08 07:44:50;;;;;;;18.48;14.35;;;;;;;9.17;73.91;100018.04;1724005;83;21040;-68
2021/11/08 07:47:17;;;;;;;17.60;13.88;;;;;;;9.29;73.70;100021.50;1723674;83;21020;-69
2021/11/08 07:49:44;;;;;;;19.30;14.25;;;;;;;9.42;73.47;100016.07;1733575;81;21848;-68
2021/11/08 07:52:10;;;;;;;19.10;13.13;;;;;;;9.52;72.72;100013.05;1743174;81;21392;-67
2021/11/08 07:54:37;;;;;;;18.95;14.10;;;;;;;9.59;72.35;100017.36;1718379;83;21067;-69
2021/11/08 07:57:04;;;;;;;15.93;13.00;;;;;;;9.65;71.96;100022.11;1718051;83;21016;-69
2021/11/08 07:59:32;;;;;;;18.17;13.53;;;;;;;9.75;71.51;100017.80;1718000;83;45869;-70
2021/11/08 08:01:59;;;;;;;17.05;12.98;;;;;;;9.83;70.64;100024.57;1718020;83;22658;-71
2021/11/08 08:04:25;;;;;;;13.43;11.90;;;;;;;9.88;69.52;100034.77;1717930;83;21092;-69
2021/11/08 08:06:52;;;;;;;17.27;12.23;;;;;;;9.91;68.70;100035.34;1731308;81;20942;-70
2021/11/08 08:09:19;;;;;;;15.23;11.90;;;;;;;9.92;68.27;100042.77;1753740;81;21528;-70
2021/11/08 08:11:45;;;;;;;15.28;11.45;;;;;;;9.98;68.25;100046.23;1753575;81;20931;-69
2021/11/08 08:14:14;;;;;;;14.15;10.60;;;;;;;10.04;67.65;100047.90;1753646;81;22232;-69
2021/11/08 08:16:40;;;;;;;16.00;10.70;;;;;;;10.11;66.61;100048.69;1761527;80;21382;-69
2021/11/08 08:19:07;;;;;;;14.53;10.63;;;;;;;10.16;66.30;100052.64;1777524;80;21454;-69
2021/11/08 08:21:33;;;;;;;12.58;10.50;;;;;;;10.22;65.72;100052.62;1765042;80;20988;-69
2021/11/08 08:24:02;;;;;;;13.62;10.72;;;;;;;10.23;65.58;100047.25;1754050;80;20957;-69
2021/11/08 08:26:36;;;;;;;13.53;10.50;;;;;;;10.30;65.84;100048.39;1753448;81;21857;-70
2021/11/08 08:29:06;;;;;;;12.20;9.73;;;;;;;10.41;65.47;100048.81;1766873;80;20960;-68
2021/11/08 08:31:35;;;;;;;12.30;9.60;;;;;;;10.51;65.44;100052.34;1784383;80;20956;-69
2021/11/08 08:34:02;;;;;;;12.98;10.05;;;;;;;10.62;65.09;100068.64;1768636;80;20996;-69
2021/11/08 08:36:29;;;;;;;13.15;9.53;;;;;;;10.70;64.84;100075.89;1783660;80;21048;-68
2021/11/08 08:38:55;;;;;;;13.72;10.10;;;;;;;10.80;64.22;100080.74;1784445;80;22648;-68
2021/11/08 08:41:22;;;;;;;12.53;10.38;;;;;;;10.85;63.95;100059.58;1782238;80;20938;-69
2021/11/08 08:43:50;;;;;;;14.20;9.95;;;;;;;10.88;63.08;100058.48;1784309;80;21031;-69
2021/11/08 08:46:16;;;;;;;12.40;9.70;;;;;;;10.88;63.07;100059.80;1784454;80;21048;-69
2021/11/08 08:48:43;;;;;;;12.58;9.93;;;;;;;10.85;62.96;100050.34;1784396;80;21005;-69
2021/11/08 08:51:10;;;;;;;11.30;9.58;;;;;;;10.83;62.70;100055.41;1784558;80;22456;-67
2021/11/08 08:53:37;;;;;;;13.48;10.10;;;;;;;10.81;62.55;100058.67;1783259;80;20980;-68
2021/11/08 08:56:04;;;;;;;11.43;9.70;;;;;;;10.82;62.44;100054.57;1783819;80;21064;-68
2021/11/08 08:58:32;;;;;;;13.15;9.80;;;;;;;10.89;62.18;100050.90;1782719;80;21376;-68
2021/11/08 09:00:59;;;;;;;12.05;9.93;;;;;;;10.98;62.05;100042.18;1783051;80;21502;-69
2021/11/08 09:03:25;;;;;;;15.30;9.80;;;;;;;11.07;62.00;100049.31;1754717;80;21842;-67
2021/11/08 09:05:52;;;;;;;12.47;9.80;;;;;;;11.14;61.15;100045.66;1777155;80;21412;-68
2021/11/08 09:08:19;;;;;;;12.28;9.60;;;;;;;11.14;60.86;100046.98;1756522;80;21379;-68
2021/11/08 09:10:45;;;;;;;13.98;9.70;;;;;;;11.11;60.22;100060.48;1772122;80;21051;-68
2021/11/08 09:13:12;;;;;;;13.90;9.65;;;;;;;11.07;59.78;100049.80;1780057;80;21086;-68
2021/11/08 09:15:38;;;;;;;12.43;10.20;;;;;;;11.05;59.83;100047.78;1772801;80;21863;-68
2021/11/08 09:18:05;;;;;;;13.05;10.48;;;;;;;11.05;59.56;100055.23;1777731;80;21071;-71
2021/11/08 09:20:32;;;;;;;14.65;10.63;;;;;;;11.01;60.04;100060.92;1769652;80;21584;-69
2021/11/08 09:22:59;;;;;;;14.18;10.78;;;;;;;11.01;60.05;100071.01;1762083;80;21025;-69
2021/11/08 09:25:27;;;;;;;14.98;10.72;;;;;;;11.00;60.18;100064.51;1761861;81;21609;-69
2021/11/08 09:27:56;;;;;;;14.98;10.98;;;;;;;10.99;60.18;100068.13;1761374;81;22500;-69
2021/11/08 09:30:26;;;;;;;14.00;10.38;;;;;;;11.02;60.44;100074.48;1760759;80;20936;-69
2021/11/08 09:32:53;;;;;;;14.65;10.95;;;;;;;11.06;60.44;100084.64;1770346;80;20919;-69
2021/11/08 09:35:19;;;;;;;13.48;10.93;;;;;;;11.13;60.35;100083.64;1762145;81;21011;-69
2021/11/08 09:37:48;;;;;;;14.53;10.00;;;;;;;11.22;60.27;100066.16;1761806;81;21457;-69
2021/11/08 09:40:19;;;;;;;12.68;10.45;;;;;;;11.37;60.57;100062.16;1762180;81;21815;-70
2021/11/08 09:42:46;;;;;;;14.07;10.05;;;;;;;11.53;60.02;100069.10;1762010;81;21062;-70
2021/11/08 09:45:13;;;;;;;15.18;10.18;;;;;;;11.67;59.45;100063.41;1761915;81;21057;-69
2021/11/08 09:47:41;;;;;;;15.58;10.78;;;;;;;11.64;58.72;100072.95;1738353;81;21542;-70
2021/11/08 09:50:09;;;;;;;14.07;10.63;;;;;;;11.53;58.44;100060.33;1769996;80;21414;-69
2021/11/08 09:52:39;;;;;;;12.68;10.20;;;;;;;11.49;58.76;100063.74;1761136;80;21867;-71
2021/11/08 09:55:09;;;;;;;15.93;11.55;;;;;;;11.55;58.67;100059.70;1753097;80;21452;-69
2021/11/08 09:57:36;;;;;;;15.15;10.80;;;;;;;11.58;58.49;100056.32;1710716;80;21074;-69
2021/11/08 10:00:25;;;;;;;14.90;11.22;;;;;;;11.61;58.48;100039.33;1750383;80;20996;-69
2021/11/08 10:03:01;;;;;;;14.78;10.70;;;;;;;11.64;58.64;100039.05;1749698;80;21348;-69
2021/11/08 10:05:31;;;;;;;15.50;11.20;;;;;;;11.70;58.72;100047.28;1755061;80;21784;-70
2021/11/08 10:07:58;;;;;;;13.95;10.45;;;;;;;11.83;59.19;100058.12;1737155;80;21118;-69
2021/11/08 10:10:27;;;;;;;14.40;10.50;;;;;;;11.97;57.88;100050.63;1731950;80;21038;-69
2021/11/08 10:13:13;;;;;;;14.05;10.30;;;;;;;12.00;57.77;100060.09;1729919;81;21041;-70
2021/11/08 10:15:46;;;;;;;12.90;9.93;;;;;;;11.99;57.51;100076.95;1785726;80;21023;-70
2021/11/08 10:18:16;;;;;;;13.85;9.43;;;;;;;11.95;56.68;100072.40;1781141;80;20929;-69
2021/11/08 10:20:46;;;;;;;12.68;8.98;;;;;;;12.01;56.59;100066.56;1811049;79;20992;-69
2021/11/08 10:23:16;;;;;;;11.97;9.45;;;;;;;12.15;56.81;100052.55;1775815;80;20972;-69
2021/11/08 10:25:43;;;;;;;14.03;10.32;;;;;;;12.37;56.18;100050.95;1761844;81;21058;-69
2021/11/08 10:28:15;;;;;;;14.47;10.68;;;;;;;12.46;55.22;100059.38;1761778;81;21004;-69
2021/11/08 10:30:44;;;;;;;12.68;9.60;;;;;;;12.41;55.17;100065.58;1761780;81;22492;-69
2021/11/08 10:33:17;;;;;;;11.53;8.93;;;;;;;12.40;55.27;100078.97;1761699;81;20944;-70
2021/11/08 10:35:53;;;;;;;12.58;8.80;;;;;;;12.41;55.36;100078.82;1761816;81;20976;-69
2021/11/08 10:38:23;;;;;;;13.32;9.95;;;;;;;12.44;55.17;100090.94;1761768;81;20985;-70
2021/11/08 10:41:10;;;;;;;13.00;9.58;;;;;;;12.40;54.27;100091.72;1759835;81;20948;-69
2021/11/08 10:43:44;;;;;;;11.63;9.08;;;;;;;12.33;54.92;100096.73;1761712;81;22851;-70
2021/11/08 10:46:14;;;;;;;13.15;9.15;;;;;;;12.28;54.98;100102.12;1744381;81;20953;-69
2021/11/08 10:48:47;;;;;;;12.28;9.38;;;;;;;12.18;55.06;100110.05;1761925;81;20949;-68
2021/11/08 10:51:17;;;;;;;13.62;10.28;;;;;;;12.03;55.59;100116.72;1762087;81;20968;-70
2021/11/08 10:54:06;;;;;;;15.25;10.48;;;;;;;11.92;55.88;100116.84;1762105;81;21404;-69
2021/11/08 10:56:44;;;;;;;12.43;9.00;;;;;;;11.83;56.23;100109.72;1760694;81;22240;-68
2021/11/08 10:59:15;;;;;;;10.48;8.15;;;;;;;11.73;56.64;100102.56;1742055;82;20991;-69
2021/11/08 11:01:56;;;;;;;12.25;9.10;;;;;;;11.67;56.42;100108.38;1742361;82;20955;-68
2021/11/08 11:04:44;;;;;;;11.65;8.70;;;;;;;11.59;56.93;100097.67;1767419;81;20960;-70
2021/11/08 11:07:23;;;;;;;12.47;9.20;;;;;;;11.63;56.90;100081.03;1764031;81;21038;-69
2021/11/08 11:09:51;;;;;;;12.45;9.08;;;;;;;11.67;57.19;100077.96;1763222;81;21783;-69
2021/11/08 11:12:22;;;;;;;11.78;9.30;;;;;;;11.80;57.28;100077.76;1764123;81;20968;-69
2021/11/08 11:14:59;;;;;;;12.20;9.20;;;;;;;11.86;56.96;100071.90;1763512;81;20968;-70
2021/11/08 11:17:29;;;;;;;12.28;8.60;;;;;;;11.85;56.65;100077.34;1746988;81;21036;-70
2021/11/08 11:20:09;;;;;;;10.38;7.65;;;;;;;11.79;56.49;100072.09;1756529;80;21083;-69
2021/11/08 11:22:40;;;;;;;11.25;8.28;;;;;;;11.73;56.17;100088.02;1761237;81;21817;-69
2021/11/08 11:25:08;;;;;;;12.73;7.50;;;;;;;11.68;56.21;100092.05;1733890;81;21513;-69
2021/11/08 11:27:38;;;;;;;10.25;8.03;;;;;;;11.57;56.27;100091.66;1761267;81;21624;-70
2021/11/08 11:30:22;;;;;;;10.28;8.30;;;;;;;11.49;56.74;100094.16;1761815;80;21915;-70
2021/11/08 11:33:01;;;;;;;10.93;8.28;;;;;;;11.44;56.85;100101.16;1792751;80;20992;-70
2021/11/08 11:35:33;;;;;;;10.13;7.85;;;;;;;11.39;57.21;100099.91;1792560;79;21846;-68
2021/11/08 11:38:05;;;;;;;14.35;8.83;;;;;;;11.32;57.18;100088.17;1792306;80;21142;-68
2021/11/08 11:40:39;;;;;;;11.53;7.47;;;;;;;11.29;57.50;100107.80;1793053;79;20975;-69
2021/11/08 11:43:09;;;;;;;10.88;7.85;;;;;;;11.26;57.11;100101.43;1791508;80;21028;-69
2021/11/08 11:45:51;;;;;;;13.20;7.33;;;;;;;11.20;57.52;100092.73;1792936;79;21027;-69
2021/11/08 11:48:21;;;;;;;9.75;6.75;;;;;;;11.20;57.61;100094.05;1782662;80;21865;-70
2021/11/08 11:50:48;;;;;;;10.08;6.90;;;;;;;11.19;57.71;100088.38;1766627;80;21071;-70
2021/11/08 11:53:15;;;;;;;8.90;6.90;;;;;;;11.21;57.55;100075.89;1728908;80;20976;-70
2021/11/08 11:55:42;;;;;;;14.18;6.85;;;;;;;11.23;57.15;100071.30;1785626;80;20996;-69
2021/11/08 11:58:09;;;;;;;9.78;6.47;;;;;;;11.20;57.11;100081.32;1784868;80;21442;-67
2021/11/08 12:00:39;;;;;;;9.05;6.65;;;;;;;11.17;57.05;100092.97;1772625;79;21832;-69
2021/11/08 12:03:07;;;;;;;9.43;5.90;;;;;;;11.14;57.21;100098.53;1762345;80;20940;-69
2021/11/08 12:05:35;;;;;;;10.40;6.37;;;;;;;11.12;57.44;100098.67;1771347;80;21013;-69
2021/11/08 12:08:04;;;;;;;9.10;6.40;;;;;;;11.12;57.65;100092.55;1762025;80;20957;-69
2021/11/08 12:10:31;;;;;;;8.73;5.75;;;;;;;11.12;57.28;100107.92;1760824;81;21039;-70
2021/11/08 12:12:58;;;;;;;9.50;6.15;;;;;;;11.06;57.31;100108.92;1767036;80;21848;-69
2021/11/08 12:15:32;;;;;;;10.58;6.80;;;;;;;10.99;57.48;100120.97;1791870;80;21082;-69
2021/11/08 12:18:08;;;;;;;11.97;6.62;;;;;;;10.92;57.78;100125.13;1791946;79;20988;-69
2021/11/08 12:20:49;;;;;;;10.28;6.20;;;;;;;10.90;57.98;100131.84;1789610;79;21442;-68
2021/11/08 12:23:31;;;;;;;9.65;5.72;;;;;;;10.83;57.89;100112.21;1788059;80;21427;-68
2021/11/08 12:25:59;;;;;;;7.33;5.65;;;;;;;10.77;57.99;100114.87;1789634;80;22668;-68
2021/11/08 12:28:28;;;;;;;8.38;5.95;;;;;;;10.73;58.02;100115.27;1789445;80;21036;-69
2021/11/08 12:30:58;;;;;;;7.97;6.33;;;;;;;10.65;57.89;100123.00;1789743;80;21455;-69
2021/11/08 12:33:34;;;;;;;10.43;6.22;;;;;;;10.58;58.12;100121.34;1789577;80;20968;-69
2021/11/08 12:36:14;;;;;;;8.95;6.37;;;;;;;10.54;58.37;100114.66;1789721;80;20944;-69
2021/11/08 12:39:03;;;;;;;9.70;6.17;;;;;;;10.51;58.33;100113.56;1788313;80;21841;-68
2021/11/08 12:41:50;;;;;;;9.48;7.00;;;;;;;10.47;58.56;100114.80;1789317;80;20996;-69
2021/11/08 12:44:21;;;;;;;8.45;6.30;;;;;;;10.45;58.69;100115.42;1789442;80;20997;-68
2021/11/08 12:46:52;;;;;;;9.43;6.30;;;;;;;10.44;58.81;100121.67;1763214;80;21008;-68
2021/11/08 12:49:33;;;;;;;9.05;6.40;;;;;;;10.41;58.74;100117.45;1789417;80;20988;-67
2021/11/08 12:52:15;;;;;;;8.10;5.80;;;;;;;10.39;58.80;100129.11;1789346;80;20965;-68
2021/11/08 12:54:50;;;;;;;11.63;7.53;;;;;;;10.40;59.20;100132.11;1788543;80;20944;-69
2021/11/08 12:57:19;;;;;;;10.63;7.17;;;;;;;10.41;59.44;100148.30;1779759;80;21063;-70
2021/11/08 13:00:03;;;;;;;12.03;8.18;;;;;;;10.40;59.48;100141.34;1735653;81;21039;-69
2021/11/08 13:02:33;;;;;;;;;;;;;;;10.39;59.54;100142.31;1749184;81;20953;-69
2021/11/08 13:05:04;;;;;;;12.37;6.85;;;;;;;10.38;59.63;100144.12;1758272;81;21849;-69
2021/11/08 13:07:34;;;;;;;11.18;7.72;;;;;;;10.34;59.70;100143.19;1758385;81;20941;-69